createdAt,value
2023-02-07T00:00:17.685Z,79.72
2023-02-07T00:02:49.296Z,80.01
2023-02-07T00:05:16.423Z,80.18
2023-02-07T00:07:43.215Z,80.09
2023-02-07T00:10:10.522Z,80.24
2023-02-07T00:12:37.223Z,80.58
2023-02-07T00:15:04.695Z,80.97
2023-02-07T00:17:31.974Z,80.67
2023-02-07T00:19:59.020Z,81.18
2023-02-07T00:22:25.797Z,81.09
2023-02-07T00:24:52.634Z,81.07
2023-02-07T00:27:19.326Z,81.28
2023-02-07T00:29:46.018Z,81.08
2023-02-07T00:32:13.015Z,81.19
2023-02-07T00:34:39.729Z,81.33
2023-02-07T00:37:06.863Z,81.28
2023-02-07T00:39:34.143Z,81.51
2023-02-07T00:42:00.948Z,81.68
2023-02-07T00:44:27.738Z,81.75
2023-02-07T00:46:54.445Z,81.88
2023-02-07T00:49:22.128Z,81.68
2023-02-07T00:51:48.769Z,81.90
2023-02-07T00:54:15.449Z,81.94
2023-02-07T00:56:42.380Z,81.57
2023-02-07T00:59:09.333Z,81.99
2023-02-07T01:01:36.413Z,82.30
2023-02-07T01:04:03.174Z,81.93
2023-02-07T01:06:33.740Z,81.90
2023-02-07T01:09:02.287Z,82.14
2023-02-07T01:11:30.072Z,82.26
2023-02-07T01:13:59.717Z,81.92
2023-02-07T01:16:32.705Z,82.02
2023-02-07T01:19:03.050Z,81.98
2023-02-07T01:21:29.781Z,81.62
2023-02-07T01:23:56.808Z,81.79
2023-02-07T01:26:27.160Z,81.90
2023-02-07T01:28:55.543Z,81.90
2023-02-07T01:31:23.021Z,81.91
2023-02-07T01:33:57.465Z,81.63
2023-02-07T01:36:25.346Z,81.56
2023-02-07T01:38:53.992Z,81.53
2023-02-07T01:41:23.045Z,81.77
2023-02-07T01:44:24.662Z,81.22
2023-02-07T01:46:52.588Z,81.36
2023-02-07T01:49:25.688Z,81.50
2023-02-07T01:51:56.574Z,81.76
2023-02-07T01:54:23.722Z,81.52
2023-02-07T01:56:58.910Z,81.35
2023-02-07T01:59:27.320Z,81.54
2023-02-07T02:01:55.365Z,81.80
2023-02-07T02:04:22.925Z,81.50
2023-02-07T02:06:49.612Z,81.77
2023-02-07T02:09:17.104Z,81.65
2023-02-07T02:12:08.519Z,81.68
2023-02-07T02:14:58.221Z,81.45
2023-02-07T02:17:51.152Z,81.46
2023-02-07T02:21:14.645Z,81.33
2023-02-07T02:23:59.796Z,81.65
2023-02-07T02:26:39.417Z,81.20
2023-02-07T02:29:18.156Z,81.39
2023-02-07T02:32:23.399Z,81.61
2023-02-07T02:35:12.169Z,81.64
2023-02-07T02:37:52.334Z,81.12
2023-02-07T02:40:21.816Z,81.36
2023-02-07T02:43:04.589Z,81.19
2023-02-07T02:45:46.727Z,81.52
2023-02-07T02:48:13.690Z,81.50
2023-02-07T02:50:46.813Z,81.12
2023-02-07T02:53:14.822Z,81.56
2023-02-07T02:55:41.412Z,81.73
2023-02-07T02:58:44.801Z,81.46
2023-02-07T03:01:21.693Z,81.28
2023-02-07T03:04:16.196Z,81.58
2023-02-07T03:07:01.875Z,81.63
2023-02-07T03:09:45.683Z,81.39
2023-02-07T03:12:32.836Z,81.47
2023-02-07T03:14:59.622Z,81.29
2023-02-07T03:17:29.142Z,81.79
2023-02-07T03:20:07.391Z,81.57
2023-02-07T03:22:35.650Z,81.36
2023-02-07T03:25:04.591Z,81.32
2023-02-07T03:27:33.243Z,81.48
2023-02-07T03:30:05.354Z,81.58
2023-02-07T03:32:37.703Z,81.94
2023-02-07T03:35:07.264Z,81.75
2023-02-07T03:37:44.535Z,81.81
2023-02-07T03:40:12.010Z,81.58
2023-02-07T03:42:44.344Z,82.03
2023-02-07T03:45:16.217Z,82.01
2023-02-07T03:47:42.864Z,81.83
2023-02-07T03:50:10.256Z,81.58
2023-02-07T03:52:36.961Z,81.56
2023-02-07T03:55:03.901Z,81.97
2023-02-07T03:57:30.729Z,81.90
2023-02-07T03:59:57.470Z,81.62
2023-02-07T04:02:24.378Z,82.02
2023-02-07T04:04:51.158Z,82.05
2023-02-07T04:07:18.026Z,81.72
2023-02-07T04:09:44.758Z,81.70
2023-02-07T04:12:11.742Z,81.72
2023-02-07T04:14:38.427Z,82.12
2023-02-07T04:17:05.123Z,82.01
2023-02-07T04:19:31.820Z,81.68
2023-02-07T04:21:58.498Z,81.77
2023-02-07T04:24:26.106Z,82.06
2023-02-07T04:26:52.790Z,81.90
2023-02-07T04:29:19.615Z,82.02
2023-02-07T04:31:46.352Z,82.17
2023-02-07T04:34:13.192Z,82.18
2023-02-07T04:36:39.873Z,82.18
2023-02-07T04:39:06.586Z,82.42
2023-02-07T04:41:33.321Z,82.48
2023-02-07T04:44:00.043Z,82.39
2023-02-07T04:46:28.583Z,82.33
2023-02-07T04:48:55.307Z,82.15
2023-02-07T04:51:21.965Z,82.75
2023-02-07T04:53:48.720Z,82.58
2023-02-07T04:56:15.418Z,82.65
2023-02-07T04:58:42.093Z,82.47
2023-02-07T05:01:08.832Z,82.70
2023-02-07T05:03:35.566Z,82.50
2023-02-07T05:06:02.378Z,82.28
2023-02-07T05:08:29.121Z,82.69
2023-02-07T05:10:56.225Z,82.82
2023-02-07T05:13:24.887Z,82.59
2023-02-07T05:15:51.913Z,82.69
2023-02-07T05:18:18.713Z,82.58
2023-02-07T05:20:45.531Z,82.57
2023-02-07T05:23:12.285Z,82.47
2023-02-07T05:25:39.235Z,82.38
2023-02-07T05:28:06.123Z,82.63
2023-02-07T05:30:32.946Z,82.78
2023-02-07T05:33:05.764Z,82.44
2023-02-07T05:35:38.579Z,82.38
2023-02-07T05:38:08.768Z,82.60
2023-02-07T05:40:37.536Z,82.48
2023-02-07T05:43:04.735Z,82.80
2023-02-07T05:45:31.823Z,82.46
2023-02-07T05:47:58.581Z,82.12
2023-02-07T05:50:26.153Z,82.45
2023-02-07T05:52:52.829Z,82.28
2023-02-07T05:55:19.886Z,82.41
2023-02-07T05:57:46.698Z,82.29
2023-02-07T06:00:17.165Z,82.64
2023-02-07T06:02:43.916Z,82.54
2023-02-07T06:05:16.934Z,82.41
2023-02-07T06:07:44.447Z,82.58
2023-02-07T06:10:11.496Z,82.39
2023-02-07T06:12:38.306Z,82.00
2023-02-07T06:15:05.477Z,82.56
2023-02-07T06:17:32.426Z,82.17
2023-02-07T06:19:59.061Z,82.39
2023-02-07T06:22:25.722Z,82.13
2023-02-07T06:24:52.385Z,82.25
2023-02-07T06:27:19.062Z,82.45
2023-02-07T06:29:45.739Z,82.04
2023-02-07T06:32:12.433Z,82.40
2023-02-07T06:34:39.145Z,82.44
2023-02-07T06:37:05.795Z,82.07
2023-02-07T06:39:32.457Z,82.62
2023-02-07T06:41:59.152Z,82.36
2023-02-07T06:44:25.846Z,82.16
2023-02-07T06:46:52.490Z,82.62
2023-02-07T06:49:19.153Z,82.14
2023-02-07T06:51:45.812Z,82.41
2023-02-07T06:54:12.491Z,82.39
2023-02-07T06:56:39.216Z,82.32
2023-02-07T06:59:05.930Z,82.56
2023-02-07T07:01:32.733Z,82.29
2023-02-07T07:03:59.457Z,82.24
2023-02-07T07:06:26.255Z,82.42
2023-02-07T07:08:52.996Z,82.36
2023-02-07T07:11:19.855Z,82.63
2023-02-07T07:13:47.066Z,82.49
2023-02-07T07:16:14.108Z,82.10
2023-02-07T07:18:41.527Z,82.43
2023-02-07T07:21:09.095Z,82.18
2023-02-07T07:23:35.898Z,82.04
2023-02-07T07:26:02.748Z,82.38
2023-02-07T07:28:29.968Z,82.65
2023-02-07T07:31:03.604Z,82.54
2023-02-07T07:33:30.443Z,82.00
2023-02-07T07:35:58.359Z,82.31
2023-02-07T07:38:25.089Z,82.37
2023-02-07T07:40:51.814Z,82.35
2023-02-07T07:43:18.877Z,82.13
2023-02-07T07:45:46.951Z,81.94
2023-02-07T07:48:13.685Z,82.25
2023-02-07T07:50:40.700Z,81.88
2023-02-07T07:53:07.494Z,82.12
2023-02-07T07:55:34.170Z,82.03
2023-02-07T07:58:00.917Z,82.23
2023-02-07T08:00:27.649Z,81.84
2023-02-07T08:02:54.337Z,81.86
2023-02-07T08:05:21.168Z,82.04
2023-02-07T08:07:48.078Z,81.89
2023-02-07T08:10:14.800Z,82.07
2023-02-07T08:12:43.280Z,82.11
2023-02-07T08:15:10.848Z,81.86
2023-02-07T08:17:37.516Z,81.91
2023-02-07T08:20:05.432Z,82.13
2023-02-07T08:22:32.327Z,81.98
2023-02-07T08:24:59.002Z,81.95
2023-02-07T08:27:25.681Z,81.87
2023-02-07T08:29:52.472Z,81.98
2023-02-07T08:32:19.178Z,82.14
2023-02-07T08:34:45.806Z,82.34
2023-02-07T08:37:13.217Z,82.17
2023-02-07T08:39:39.957Z,82.22
2023-02-07T08:42:08.311Z,82.14
2023-02-07T08:44:35.965Z,81.77
2023-02-07T08:47:04.051Z,82.02
2023-02-07T08:49:30.984Z,81.88
2023-02-07T08:51:57.632Z,82.09
2023-02-07T08:54:24.289Z,81.86
2023-02-07T08:56:50.936Z,82.07
2023-02-07T08:59:17.615Z,82.29
2023-02-07T09:01:44.306Z,82.11
2023-02-07T09:04:11.717Z,81.99
2023-02-07T09:06:39.275Z,81.86
2023-02-07T09:09:06.831Z,82.05
2023-02-07T09:11:33.881Z,81.94
2023-02-07T09:14:00.704Z,82.16
2023-02-07T09:16:27.507Z,82.03
2023-02-07T09:18:54.191Z,81.75
2023-02-07T09:21:20.907Z,82.23
2023-02-07T09:23:47.599Z,82.36
2023-02-07T09:26:20.452Z,82.20
2023-02-07T09:28:47.313Z,82.12
2023-02-07T09:31:16.088Z,82.17
2023-02-07T09:33:43.049Z,82.34
2023-02-07T09:36:21.253Z,81.92
2023-02-07T09:38:48.169Z,82.12
2023-02-07T09:41:39.252Z,82.16
2023-02-07T09:44:14.485Z,82.31
2023-02-07T09:46:54.216Z,82.19
2023-02-07T09:49:37.142Z,82.22
2023-02-07T09:52:06.318Z,82.33
2023-02-07T09:54:44.423Z,82.12
2023-02-07T09:57:18.683Z,82.48
2023-02-07T09:59:52.479Z,81.98
2023-02-07T10:02:27.521Z,82.20
2023-02-07T10:05:00.510Z,82.36
2023-02-07T10:07:27.317Z,82.36
2023-02-07T10:09:54.225Z,82.66
2023-02-07T10:13:01.082Z,82.66
2023-02-07T10:15:49.596Z,82.68
2023-02-07T10:18:37.504Z,82.76
2023-02-07T10:21:39.814Z,82.59
2023-02-07T10:24:29.793Z,82.21
2023-02-07T10:27:13.765Z,82.69
2023-02-07T10:30:03.376Z,82.63
2023-02-07T10:32:37.293Z,82.84
2023-02-07T10:35:19.846Z,82.65
2023-02-07T10:37:49.547Z,83.08
2023-02-07T10:40:19.326Z,82.52
2023-02-07T10:42:52.300Z,82.58
2023-02-07T10:45:19.934Z,82.82
2023-02-07T10:47:46.798Z,82.55
2023-02-07T10:50:29.432Z,82.69
2023-02-07T10:52:58.966Z,82.84
2023-02-07T10:55:47.896Z,82.52
2023-02-07T10:58:23.882Z,82.82
2023-02-07T11:00:55.239Z,82.78
2023-02-07T11:03:24.468Z,83.07
2023-02-07T11:06:14.590Z,82.88
2023-02-07T11:08:41.688Z,82.86
2023-02-07T11:11:28.994Z,82.75
2023-02-07T11:14:02.026Z,82.85
2023-02-07T11:16:28.940Z,83.25
2023-02-07T11:19:04.664Z,82.47
2023-02-07T11:21:34.351Z,82.70
2023-02-07T11:24:08.343Z,82.46
2023-02-07T11:26:39.345Z,82.75
2023-02-07T11:29:16.108Z,82.79
2023-02-07T11:31:45.049Z,82.69
2023-02-07T11:34:14.490Z,82.77
2023-02-07T11:36:41.160Z,83.00
2023-02-07T11:39:18.272Z,82.88
2023-02-07T11:41:56.027Z,82.52
2023-02-07T11:44:25.792Z,82.95
2023-02-07T11:46:56.294Z,83.20
2023-02-07T11:49:29.376Z,82.98
2023-02-07T11:52:00.350Z,82.91
2023-02-07T11:54:29.732Z,82.52
2023-02-07T11:57:13.522Z,82.97
2023-02-07T11:59:51.027Z,83.39
2023-02-07T12:02:23.470Z,82.99
2023-02-07T12:04:51.794Z,83.30
2023-02-07T12:07:37.829Z,83.13
2023-02-07T12:10:10.803Z,83.22
2023-02-07T12:12:49.817Z,83.10
2023-02-07T12:15:22.298Z,82.80
2023-02-07T12:17:59.373Z,83.32
2023-02-07T12:20:27.968Z,83.08
2023-02-07T12:23:40.430Z,83.19
2023-02-07T12:26:11.854Z,83.39
2023-02-07T12:28:47.939Z,82.99
2023-02-07T12:31:28.112Z,83.29
2023-02-07T12:34:05.268Z,82.98
2023-02-07T12:36:38.097Z,83.05
2023-02-07T12:39:15.913Z,82.92
2023-02-07T12:41:56.399Z,83.26
2023-02-07T12:44:32.263Z,83.19
2023-02-07T12:47:08.035Z,83.11
2023-02-07T12:50:11.811Z,83.05
2023-02-07T12:52:56.652Z,83.27
2023-02-07T12:55:42.068Z,83.37
2023-02-07T12:58:41.513Z,83.24
2023-02-07T13:01:35.854Z,83.17
2023-02-07T13:04:24.156Z,83.58
2023-02-07T13:07:12.881Z,83.00
2023-02-07T13:10:31.785Z,83.28
2023-02-07T13:13:12.647Z,83.29
2023-02-07T13:15:55.137Z,83.25
2023-02-07T13:19:00.750Z,83.44
2023-02-07T13:21:40.122Z,83.57
2023-02-07T13:24:11.925Z,83.10
2023-02-07T13:26:39.380Z,83.39
2023-02-07T13:29:14.031Z,83.49
2023-02-07T13:31:46.539Z,83.29
2023-02-07T13:34:19.914Z,83.23
2023-02-07T13:36:55.295Z,83.51
2023-02-07T13:39:46.741Z,83.56
2023-02-07T13:42:36.268Z,83.22
2023-02-07T13:45:19.391Z,83.54
2023-02-07T13:48:33.673Z,83.46
2023-02-07T13:51:24.422Z,83.37
2023-02-07T13:54:10.168Z,83.51
2023-02-07T13:56:55.700Z,83.60
2023-02-07T13:59:40.304Z,83.64
2023-02-07T14:02:17.099Z,83.33
2023-02-07T14:04:59.498Z,83.80
2023-02-07T14:07:29.985Z,83.81
2023-02-07T14:09:59.092Z,83.66
2023-02-07T14:12:29.022Z,83.73
2023-02-07T14:15:16.461Z,83.45
2023-02-07T14:17:43.061Z,83.97
2023-02-07T14:20:32.774Z,83.97
2023-02-07T14:22:59.355Z,83.40
2023-02-07T14:25:31.893Z,83.83
2023-02-07T14:28:04.469Z,83.78
2023-02-07T14:30:38.713Z,83.97
2023-02-07T14:33:20.259Z,83.98
2023-02-07T14:36:05.333Z,83.61
2023-02-07T14:38:46.197Z,83.71
2023-02-07T14:41:15.450Z,83.60
2023-02-07T14:44:07.520Z,83.73
2023-02-07T14:46:46.992Z,83.94
2023-02-07T14:49:28.295Z,83.69
2023-02-07T14:52:06.925Z,83.72
2023-02-07T14:54:40.589Z,83.83
2023-02-07T14:57:30.031Z,83.71
2023-02-07T15:00:10.737Z,83.87
2023-02-07T15:02:41.660Z,83.83
2023-02-07T15:05:35.450Z,84.05
2023-02-07T15:08:02.133Z,84.09
2023-02-07T15:10:35.235Z,84.06
2023-02-07T15:13:05.177Z,83.78
2023-02-07T15:15:56.174Z,84.06
2023-02-07T15:18:25.315Z,84.04
2023-02-07T15:20:58.544Z,84.08
2023-02-07T15:23:28.472Z,83.91
2023-02-07T15:25:55.927Z,84.14
2023-02-07T15:28:27.825Z,83.85
2023-02-07T15:31:11.432Z,83.77
2023-02-07T15:33:40.882Z,83.94
2023-02-07T15:36:31.262Z,83.88
2023-02-07T15:39:00.416Z,84.24
2023-02-07T15:41:27.921Z,84.12
2023-02-07T15:44:18.793Z,83.80
2023-02-07T15:47:01.329Z,83.75
2023-02-07T15:49:40.859Z,83.85
2023-02-07T15:52:25.084Z,84.04
2023-02-07T15:54:54.422Z,83.99
2023-02-07T15:57:29.245Z,83.99
2023-02-07T16:00:02.393Z,84.01
2023-02-07T16:02:32.886Z,83.97
2023-02-07T16:05:07.432Z,83.75
2023-02-07T16:07:35.517Z,83.81
2023-02-07T16:10:23.800Z,83.82
2023-02-07T16:13:01.314Z,83.78
2023-02-07T16:15:32.678Z,83.53
2023-02-07T16:18:00.777Z,83.72
2023-02-07T16:20:29.310Z,83.39
2023-02-07T16:23:06.151Z,83.58
2023-02-07T16:25:37.754Z,83.69
2023-02-07T16:28:10.553Z,83.75
2023-02-07T16:30:41.701Z,83.14
2023-02-07T16:33:36.728Z,83.32
2023-02-07T16:36:22.455Z,83.24
2023-02-07T16:38:51.649Z,83.58
2023-02-07T16:41:37.706Z,83.44
2023-02-07T16:44:11.043Z,83.20
2023-02-07T16:46:38.962Z,83.54
2023-02-07T16:49:17.370Z,83.20
2023-02-07T16:51:45.322Z,83.26
2023-02-07T16:54:17.885Z,83.40
2023-02-07T16:56:52.497Z,83.19
2023-02-07T16:59:34.747Z,82.86
2023-02-07T17:02:02.775Z,83.17
2023-02-07T17:04:33.667Z,83.05
2023-02-07T17:07:08.981Z,83.16
2023-02-07T17:09:43.241Z,82.98
2023-02-07T17:12:10.194Z,82.88
2023-02-07T17:14:38.365Z,82.88
2023-02-07T17:17:05.790Z,82.86
2023-02-07T17:19:32.661Z,82.98
2023-02-07T17:21:59.338Z,82.80
2023-02-07T17:24:26.062Z,82.66
2023-02-07T17:26:54.466Z,82.52
2023-02-07T17:29:21.877Z,82.76
2023-02-07T17:31:49.069Z,82.67
2023-02-07T17:34:15.989Z,82.52
2023-02-07T17:36:47.302Z,82.49
2023-02-07T17:39:14.988Z,82.24
2023-02-07T17:41:41.673Z,82.34
2023-02-07T17:44:08.625Z,82.29
2023-02-07T17:46:35.389Z,82.17
2023-02-07T17:49:02.515Z,82.04
2023-02-07T17:51:29.386Z,82.01
2023-02-07T17:53:56.814Z,81.96
2023-02-07T17:56:31.595Z,82.03
2023-02-07T17:59:01.026Z,82.29
2023-02-07T18:01:28.344Z,82.09
2023-02-07T18:03:56.198Z,81.79
2023-02-07T18:06:25.550Z,81.64
2023-02-07T18:08:52.704Z,81.84
2023-02-07T18:11:19.583Z,81.86
2023-02-07T18:13:48.113Z,81.80
2023-02-07T18:16:24.068Z,82.00
2023-02-07T18:18:52.968Z,81.79
2023-02-07T18:21:19.793Z,81.92
2023-02-07T18:23:46.672Z,81.86
2023-02-07T18:26:15.776Z,81.74
2023-02-07T18:28:43.815Z,81.67
2023-02-07T18:31:16.945Z,81.66
2023-02-07T18:33:44.115Z,81.34
2023-02-07T18:36:10.842Z,81.80
2023-02-07T18:38:38.116Z,81.72
2023-02-07T18:41:10.047Z,81.59
2023-02-07T18:43:38.088Z,81.66
2023-02-07T18:46:17.021Z,81.44
2023-02-07T18:48:51.143Z,81.63
2023-02-07T18:51:19.336Z,81.33
2023-02-07T18:53:46.550Z,81.42
2023-02-07T18:56:16.911Z,81.50
2023-02-07T18:58:48.609Z,81.28
2023-02-07T19:01:21.134Z,81.36
2023-02-07T19:03:54.427Z,81.40
2023-02-07T19:06:23.206Z,81.07
2023-02-07T19:08:49.984Z,81.37
2023-02-07T19:11:17.168Z,81.25
2023-02-07T19:13:44.038Z,81.24
2023-02-07T19:16:20.347Z,80.88
2023-02-07T19:18:48.318Z,80.82
2023-02-07T19:21:23.873Z,81.20
2023-02-07T19:23:51.246Z,80.89
2023-02-07T19:26:17.913Z,80.88
2023-02-07T19:28:44.862Z,80.93
2023-02-07T19:31:18.409Z,80.84
2023-02-07T19:33:46.271Z,81.15
2023-02-07T19:36:13.316Z,80.70
2023-02-07T19:38:40.319Z,81.06
2023-02-07T19:41:08.332Z,80.89
2023-02-07T19:43:36.322Z,80.96
2023-02-07T19:46:03.075Z,81.01
2023-02-07T19:48:29.794Z,80.75
2023-02-07T19:51:02.267Z,80.82
2023-02-07T19:53:29.836Z,80.44
2023-02-07T19:56:02.538Z,80.74
2023-02-07T19:58:31.412Z,80.79
2023-02-07T20:00:59.070Z,80.90
2023-02-07T20:03:26.049Z,80.72
2023-02-07T20:05:55.550Z,80.63
2023-02-07T20:08:22.285Z,80.75
2023-02-07T20:10:48.984Z,80.75
2023-02-07T20:13:16.395Z,80.50
2023-02-07T20:15:46.100Z,80.38
2023-02-07T20:18:13.471Z,80.36
2023-02-07T20:20:46.530Z,80.34
2023-02-07T20:23:14.436Z,80.70
2023-02-07T20:25:41.435Z,80.58
2023-02-07T20:28:09.036Z,80.68
2023-02-07T20:30:36.552Z,80.64
2023-02-07T20:33:03.270Z,80.72
2023-02-07T20:35:29.954Z,80.65
2023-02-07T20:37:56.808Z,80.86
2023-02-07T20:40:23.572Z,80.72
2023-02-07T20:42:50.345Z,80.80
2023-02-07T20:45:17.079Z,80.59
2023-02-07T20:47:43.895Z,80.59
2023-02-07T20:50:10.588Z,80.88
2023-02-07T20:52:37.692Z,80.80
2023-02-07T20:55:05.939Z,80.84
2023-02-07T20:57:32.670Z,80.52
2023-02-07T20:59:59.365Z,80.80
2023-02-07T21:02:26.166Z,80.70
2023-02-07T21:04:52.952Z,80.79
2023-02-07T21:07:19.618Z,81.03
2023-02-07T21:09:46.564Z,80.51
2023-02-07T21:12:13.562Z,80.82
2023-02-07T21:14:41.505Z,80.69
2023-02-07T21:17:08.630Z,80.97
2023-02-07T21:19:36.794Z,80.52
2023-02-07T21:22:03.733Z,80.94
2023-02-07T21:24:30.907Z,80.65
2023-02-07T21:26:57.928Z,80.88
2023-02-07T21:29:25.598Z,80.64
2023-02-07T21:31:52.660Z,80.52
2023-02-07T21:34:21.423Z,80.79
2023-02-07T21:36:49.426Z,80.84
2023-02-07T21:39:16.967Z,80.93
2023-02-07T21:41:45.619Z,80.80
2023-02-07T21:44:13.498Z,80.95
2023-02-07T21:46:41.710Z,80.79
2023-02-07T21:49:14.725Z,80.78
2023-02-07T21:51:42.885Z,80.95
2023-02-07T21:54:09.644Z,80.86
2023-02-07T21:56:39.449Z,81.22
2023-02-07T21:59:10.409Z,81.14
2023-02-07T22:01:37.281Z,81.08
2023-02-07T22:04:05.608Z,80.75
2023-02-07T22:06:32.975Z,81.39
2023-02-07T22:09:01.773Z,81.05
2023-02-07T22:11:30.794Z,81.02
2023-02-07T22:13:57.557Z,80.84
2023-02-07T22:16:25.969Z,81.12
2023-02-07T22:18:53.950Z,81.00
2023-02-07T22:21:29.635Z,81.34
2023-02-07T22:23:57.397Z,81.39
2023-02-07T22:26:25.241Z,81.31
2023-02-07T22:28:51.987Z,81.36
2023-02-07T22:31:22.165Z,81.25
2023-02-07T22:33:49.970Z,81.04
2023-02-07T22:36:28.464Z,81.49
2023-02-07T22:38:55.489Z,81.36
2023-02-07T22:41:22.383Z,81.23
2023-02-07T22:43:49.805Z,81.27
2023-02-07T22:46:20.142Z,81.33
2023-02-07T22:48:47.650Z,81.51
2023-02-07T22:51:17.867Z,81.42
2023-02-07T22:53:45.057Z,81.10
2023-02-07T22:56:12.702Z,81.36
2023-02-07T22:58:40.767Z,81.29
2023-02-07T23:01:07.736Z,81.09
2023-02-07T23:03:34.875Z,81.16
2023-02-07T23:06:05.746Z,81.01
2023-02-07T23:08:32.486Z,81.57
2023-02-07T23:10:59.257Z,81.22
2023-02-07T23:13:26.514Z,81.36
2023-02-07T23:15:53.987Z,81.33
2023-02-07T23:18:20.844Z,81.37
2023-02-07T23:20:47.731Z,81.37
2023-02-07T23:23:14.477Z,81.38
2023-02-07T23:25:45.759Z,81.83
2023-02-07T23:28:13.391Z,81.65
2023-02-07T23:30:40.880Z,81.63
2023-02-07T23:33:09.686Z,81.64
2023-02-07T23:35:37.060Z,81.93
2023-02-07T23:38:04.074Z,81.24
2023-02-07T23:40:31.017Z,81.63
2023-02-07T23:42:57.706Z,81.47
2023-02-07T23:45:25.224Z,81.56
2023-02-07T23:47:52.041Z,81.76
2023-02-07T23:50:18.731Z,81.61
2023-02-07T23:52:45.705Z,81.51
2023-02-07T23:55:12.600Z,81.62
2023-02-07T23:57:39.310Z,81.43
